Layton, Florida
Current Conditions -  °F | °C
As of 6:53 PM on Friday 21 Nov 2014 (Local Time) from KMTH Reporting Station
Light Rain Light Rain  
Wind Chill: 73°   Ceiling: 3300
Heat Index: 73°   Visibility: 8mi
Dew Point: 72°   Wind: 18mph
Humidity: 96%   Direction: 50°NE
Pressure: 30.09"   Gusts: NA
Location:  24.8241°N, 80.818°W
Report Text: KMTH 212353Z AUTO 05016KT 8SM -RA SCT025 BKN033 OVC040 23/22 A3009 RMK AO2 PK WND 06027/2254 RAB44 SLP189 P0000 60038 T02280222 10228 20217 51006
Loading
Personal Weather Stations






























Interactive Weather Map New forecast layout! Learn more

10-Day Weather Forecast

Advertisements
Track Severe Weather on mobile